createdAt,value
2023-01-02T00:01:33.487Z,10.40
2023-01-02T00:04:01.865Z,10.40
2023-01-02T00:06:33.794Z,10.40
2023-01-02T00:09:04.632Z,10.40
2023-01-02T00:11:33.248Z,10.40
2023-01-02T00:14:01.540Z,10.40
2023-01-02T00:16:29.961Z,10.40
2023-01-02T00:18:58.317Z,10.40
2023-01-02T00:21:26.696Z,10.40
2023-01-02T00:23:55.033Z,10.40
2023-01-02T00:26:25.907Z,10.40
2023-01-02T00:28:55.022Z,10.40
2023-01-02T00:31:23.348Z,10.40
2023-01-02T00:33:51.601Z,10.40
2023-01-02T00:36:19.947Z,10.40
2023-01-02T00:38:48.368Z,10.30
2023-01-02T00:41:18.898Z,10.30
2023-01-02T00:43:50.579Z,10.30
2023-01-02T00:46:19.008Z,10.30
2023-01-02T00:48:47.352Z,10.30
2023-01-02T00:51:15.735Z,10.30
2023-01-02T00:53:44.010Z,10.30
2023-01-02T00:56:12.521Z,10.20
2023-01-02T00:58:40.831Z,10.20
2023-01-02T01:01:10.525Z,10.20
2023-01-02T01:03:38.856Z,10.20
2023-01-02T01:06:08.628Z,10.20
2023-01-02T01:08:57.174Z,10.20
2023-01-02T01:11:25.432Z,10.20
2023-01-02T01:13:53.852Z,10.20
2023-01-02T01:16:23.586Z,10.10
2023-01-02T01:18:56.428Z,10.10
2023-01-02T01:21:25.001Z,10.10
2023-01-02T01:23:54.740Z,10.10
2023-01-02T01:26:23.816Z,10.10
2023-01-02T01:28:54.320Z,10.10
2023-01-02T01:31:25.068Z,10.00
2023-01-02T01:33:53.528Z,10.00
2023-01-02T01:36:25.093Z,10.00
2023-01-02T01:38:53.473Z,10.00
2023-01-02T01:41:24.212Z,10.00
2023-01-02T01:43:54.940Z,10.00
2023-01-02T01:46:29.198Z,10.00
2023-01-02T01:49:03.328Z,10.00
2023-01-02T01:51:35.075Z,9.90
2023-01-02T01:54:08.729Z,9.90
2023-01-02T01:56:39.988Z,9.90
2023-01-02T01:59:10.690Z,9.90
2023-01-02T02:01:43.115Z,9.90
2023-01-02T02:04:15.082Z,9.90
2023-01-02T02:06:43.351Z,9.90
2023-01-02T02:09:16.729Z,9.90
2023-01-02T02:11:45.789Z,9.90
2023-01-02T02:14:14.006Z,9.90
2023-01-02T02:16:51.025Z,9.90
2023-01-02T02:19:44.862Z,9.90
2023-01-02T02:22:36.813Z,9.90
2023-01-02T02:25:34.681Z,9.90
2023-01-02T02:28:30.359Z,9.90
2023-01-02T02:31:09.043Z,9.90
2023-01-02T02:33:46.119Z,9.90
2023-01-02T02:36:22.751Z,9.90
2023-01-02T02:39:07.422Z,9.80
2023-01-02T02:41:39.795Z,9.80
2023-01-02T02:44:24.320Z,9.90
2023-01-02T02:47:00.746Z,9.90
2023-01-02T02:49:43.962Z,9.90
2023-01-02T02:52:18.937Z,9.90
2023-01-02T02:54:52.499Z,9.90
2023-01-02T02:57:22.895Z,9.90
2023-01-02T02:59:51.204Z,9.80
2023-01-02T03:02:21.402Z,9.80
2023-01-02T03:04:54.235Z,9.80
2023-01-02T03:07:30.815Z,9.80
2023-01-02T03:10:10.226Z,9.80
2023-01-02T03:12:50.373Z,9.80
2023-01-02T03:15:24.584Z,9.90
2023-01-02T03:18:05.683Z,9.80
2023-01-02T03:20:40.013Z,9.80
2023-01-02T03:23:12.422Z,9.80
2023-01-02T03:25:43.656Z,9.80
2023-01-02T03:28:13.034Z,9.80
2023-01-02T03:30:43.490Z,9.80
2023-01-02T03:33:18.125Z,9.80
2023-01-02T03:35:50.895Z,9.80
2023-01-02T03:38:23.231Z,9.80
2023-01-02T03:40:59.055Z,9.80
2023-01-02T03:43:30.800Z,9.80
2023-01-02T03:46:06.279Z,9.80
2023-01-02T03:48:41.735Z,9.80
2023-01-02T03:51:10.084Z,9.80
2023-01-02T03:53:40.600Z,9.80
2023-01-02T03:56:18.823Z,9.70
2023-01-02T03:58:54.226Z,9.80
2023-01-02T04:01:32.022Z,9.70
2023-01-02T04:04:09.118Z,9.70
2023-01-02T04:06:42.098Z,9.70
2023-01-02T04:09:13.805Z,9.70
2023-01-02T04:11:48.054Z,9.70
2023-01-02T04:14:21.238Z,9.70
2023-01-02T04:16:53.424Z,9.70
2023-01-02T04:19:27.538Z,9.70
2023-01-02T04:22:02.247Z,9.70
2023-01-02T04:24:35.108Z,9.70
2023-01-02T04:27:08.451Z,9.70
2023-01-02T04:29:37.079Z,9.70
2023-01-02T04:32:12.489Z,9.60
2023-01-02T04:34:44.568Z,9.60
2023-01-02T04:37:27.535Z,9.60
2023-01-02T04:39:59.727Z,9.60
2023-01-02T04:42:28.043Z,9.60
2023-01-02T04:44:56.329Z,9.60
2023-01-02T04:47:24.617Z,9.60
2023-01-02T04:49:54.268Z,9.60
2023-01-02T04:52:22.596Z,9.60
2023-01-02T04:54:50.885Z,9.60
2023-01-02T04:57:19.246Z,9.50
2023-01-02T04:59:47.721Z,9.50
2023-01-02T05:02:16.198Z,9.50
2023-01-02T05:04:44.601Z,9.50
2023-01-02T05:07:14.309Z,9.50
2023-01-02T05:09:42.633Z,9.50
2023-01-02T05:12:11.127Z,9.50
2023-01-02T05:14:39.441Z,9.50
2023-01-02T05:17:07.736Z,9.40
2023-01-02T05:19:36.786Z,9.40
2023-01-02T05:22:22.416Z,9.40
2023-01-02T05:24:52.376Z,9.50
2023-01-02T05:27:20.774Z,9.40
2023-01-02T05:29:49.066Z,9.40
2023-01-02T05:32:17.322Z,9.40
2023-01-02T05:34:45.551Z,9.40
2023-01-02T05:37:13.872Z,9.40
2023-01-02T05:39:42.100Z,9.30
2023-01-02T05:42:11.780Z,9.30
2023-01-02T05:44:39.983Z,9.40
2023-01-02T05:47:10.891Z,9.30
2023-01-02T05:49:41.800Z,9.30
2023-01-02T05:52:10.073Z,9.30
2023-01-02T05:54:38.410Z,9.30
2023-01-02T05:57:06.844Z,9.30
2023-01-02T06:02:18.714Z,9.30
2023-01-02T06:04:47.373Z,9.30
2023-01-02T06:07:15.605Z,9.30
2023-01-02T06:09:43.970Z,9.30
2023-01-02T06:12:12.249Z,9.30
2023-01-02T06:14:41.882Z,9.30
2023-01-02T06:17:10.123Z,9.20
2023-01-02T06:19:38.377Z,9.20
2023-01-02T06:22:06.649Z,9.20
2023-01-02T06:24:34.994Z,9.20
2023-01-02T06:27:03.343Z,9.20
2023-01-02T06:29:31.611Z,9.20
2023-01-02T06:32:01.277Z,9.20
2023-01-02T06:34:29.648Z,9.20
2023-01-02T06:36:57.966Z,9.10
2023-01-02T06:39:27.041Z,9.10
2023-01-02T06:41:55.391Z,9.10
2023-01-02T06:44:23.742Z,9.10
2023-01-02T06:46:52.026Z,9.10
2023-01-02T06:49:21.809Z,9.10
2023-01-02T06:51:50.444Z,9.00
2023-01-02T06:54:18.756Z,9.00
2023-01-02T06:56:47.029Z,9.00
2023-01-02T06:59:15.444Z,9.00
2023-01-02T07:01:43.859Z,9.00
2023-01-02T07:04:17.147Z,8.90
2023-01-02T07:06:46.858Z,8.90
2023-01-02T07:09:15.168Z,8.90
2023-01-02T07:11:43.469Z,8.90
2023-01-02T07:14:11.780Z,8.90
2023-01-02T07:16:40.080Z,8.80
2023-01-02T07:19:08.383Z,8.80
2023-01-02T07:21:36.738Z,8.80
2023-01-02T07:24:07.165Z,8.80
2023-01-02T07:26:35.536Z,8.80
2023-01-02T07:29:03.880Z,8.70
2023-01-02T07:31:32.291Z,8.70
2023-01-02T07:34:00.546Z,8.70
2023-01-02T07:36:28.913Z,8.70
2023-01-02T07:38:58.353Z,8.70
2023-01-02T07:41:28.119Z,8.70
2023-01-02T07:43:57.632Z,8.70
2023-01-02T07:46:26.098Z,8.70
2023-01-02T07:48:54.414Z,8.70
2023-01-02T07:51:26.998Z,8.60
2023-01-02T07:53:57.204Z,8.60
2023-01-02T07:56:27.529Z,8.60
2023-01-02T07:58:55.944Z,8.60
2023-01-02T08:01:24.397Z,8.60
2023-01-02T08:03:52.795Z,8.60
2023-01-02T08:06:21.556Z,8.60
2023-01-02T08:08:50.053Z,8.50
2023-01-02T08:11:21.224Z,8.50
2023-01-02T08:13:51.306Z,8.50
2023-01-02T08:16:21.339Z,8.50
2023-01-02T08:18:52.169Z,8.50
2023-01-02T08:21:20.451Z,8.40
2023-01-02T08:23:48.804Z,8.40
2023-01-02T08:26:17.186Z,8.40
2023-01-02T08:28:46.012Z,8.40
2023-01-02T08:31:19.767Z,8.40
2023-01-02T08:33:50.246Z,8.40
2023-01-02T08:36:19.919Z,8.40
2023-01-02T08:38:48.373Z,8.40
2023-01-02T08:41:16.739Z,8.40
2023-01-02T08:43:45.040Z,8.40
2023-01-02T08:46:13.284Z,8.40
2023-01-02T08:48:43.014Z,8.40
2023-01-02T08:51:12.036Z,8.40
2023-01-02T08:53:40.708Z,8.40
2023-01-02T08:56:22.816Z,8.40
2023-01-02T08:59:13.385Z,8.40
2023-01-02T09:01:42.729Z,8.40
2023-01-02T09:04:13.513Z,8.40
2023-01-02T09:06:43.469Z,8.40
2023-01-02T09:09:14.093Z,8.50
2023-01-02T09:11:45.960Z,8.50
2023-01-02T09:14:14.276Z,8.50
2023-01-02T09:16:42.980Z,8.50
2023-01-02T09:19:12.766Z,8.60
2023-01-02T09:21:41.048Z,8.50
2023-01-02T09:24:10.235Z,8.60
2023-01-02T09:26:41.703Z,8.60
2023-01-02T09:29:10.674Z,8.60
2023-01-02T09:31:39.259Z,8.70
2023-01-02T09:34:07.894Z,8.70
2023-01-02T09:36:37.886Z,8.70
2023-01-02T09:39:06.596Z,8.70
2023-01-02T09:41:37.413Z,8.70
2023-01-02T09:44:11.702Z,8.80
2023-01-02T09:46:46.796Z,8.80
2023-01-02T09:49:19.596Z,8.80
2023-01-02T09:51:49.920Z,8.80
2023-01-02T09:54:24.943Z,8.90
2023-01-02T09:57:05.037Z,8.90
2023-01-02T09:59:37.964Z,8.90
2023-01-02T10:02:19.712Z,9.00
2023-01-02T10:05:19.461Z,9.00
2023-01-02T10:07:54.149Z,9.00
2023-01-02T10:10:31.083Z,9.10
2023-01-02T10:13:10.668Z,9.10
2023-01-02T10:15:43.726Z,9.10
2023-01-02T10:18:21.684Z,9.20
2023-01-02T10:20:55.047Z,9.20
2023-01-02T10:23:27.984Z,9.20
2023-01-02T10:30:20.421Z,9.30
2023-01-02T10:32:56.404Z,9.30
2023-01-02T10:35:35.075Z,9.40
2023-01-02T10:38:03.873Z,9.40
2023-01-02T10:40:34.381Z,9.40
2023-01-02T10:43:03.062Z,9.50
2023-01-02T10:45:31.633Z,9.50
2023-01-02T10:47:59.918Z,9.60
2023-01-02T10:50:32.763Z,9.60
2023-01-02T10:53:09.003Z,9.60
2023-01-02T10:55:42.589Z,9.70
2023-01-02T10:58:22.242Z,9.70
2023-01-02T11:00:51.997Z,9.70
2023-01-02T11:03:25.212Z,9.80
2023-01-02T11:05:55.809Z,9.80
2023-01-02T11:08:27.449Z,9.80
2023-01-02T11:10:57.127Z,9.90
2023-01-02T11:13:25.419Z,9.90
2023-01-02T11:15:57.582Z,9.90
2023-01-02T11:18:28.923Z,9.90
2023-01-02T11:21:04.131Z,10.00
2023-01-02T11:23:37.337Z,10.10
2023-01-02T11:26:14.196Z,10.10
2023-01-02T11:32:39.038Z,10.20
2023-01-02T11:35:35.115Z,10.20
2023-01-02T11:38:03.678Z,10.20
2023-01-02T11:40:33.397Z,10.20
2023-01-02T11:43:24.504Z,10.20
2023-01-02T11:45:54.078Z,10.30
2023-01-02T11:48:24.931Z,10.30
2023-01-02T11:50:54.773Z,10.30
2023-01-02T11:53:30.122Z,10.30
2023-01-02T11:56:03.672Z,10.40
2023-01-02T11:58:40.439Z,10.40
2023-01-02T12:01:29.100Z,10.40
2023-01-02T12:03:58.252Z,10.40
2023-01-02T12:06:39.053Z,10.50
2023-01-02T12:09:12.212Z,10.50
2023-01-02T12:11:59.596Z,10.60
2023-01-02T12:14:54.151Z,10.60
2023-01-02T12:17:31.302Z,10.70
2023-01-02T12:20:10.909Z,10.70
2023-01-02T12:23:10.625Z,10.70
2023-01-02T12:25:50.893Z,10.80
2023-01-02T12:28:46.065Z,10.80
2023-01-02T12:31:28.727Z,10.90
2023-01-02T12:34:07.784Z,11.00
2023-01-02T12:36:49.378Z,11.00
2023-01-02T12:40:05.903Z,11.10
2023-01-02T12:42:56.443Z,11.20
2023-01-02T12:45:35.515Z,11.40
2023-01-02T12:48:21.041Z,11.40
2023-01-02T12:50:59.391Z,11.50
2023-01-02T12:53:42.412Z,11.60
2023-01-02T12:56:18.978Z,11.60
2023-01-02T12:59:11.623Z,11.60
2023-01-02T13:01:45.807Z,11.70
2023-01-02T13:04:21.157Z,11.70
2023-01-02T13:06:55.413Z,11.70
2023-01-02T13:09:40.290Z,11.80
2023-01-02T13:12:14.501Z,11.90
2023-01-02T13:14:45.861Z,11.90
2023-01-02T13:17:31.693Z,12.00
2023-01-02T13:20:05.304Z,12.00
2023-01-02T13:22:41.287Z,12.00
2023-01-02T13:25:15.894Z,12.00
2023-01-02T13:27:47.449Z,12.00
2023-01-02T13:30:38.463Z,11.90
2023-01-02T13:33:23.651Z,12.00
2023-01-02T13:35:52.530Z,11.90
2023-01-02T13:38:23.017Z,11.90
2023-01-02T13:40:56.763Z,11.90
2023-01-02T13:43:29.353Z,11.90
2023-01-02T13:45:59.254Z,11.80
2023-01-02T13:48:40.212Z,11.80
2023-01-02T13:51:14.826Z,11.80
2023-01-02T13:53:45.424Z,11.80
2023-01-02T13:56:29.440Z,11.80
2023-01-02T13:59:03.582Z,11.70
2023-01-02T14:02:15.795Z,11.70
2023-01-02T14:04:44.675Z,11.70
2023-01-02T14:07:49.506Z,11.70
2023-01-02T14:10:42.304Z,11.60
2023-01-02T14:13:19.646Z,11.70
2023-01-02T14:16:20.957Z,11.70
2023-01-02T14:19:16.527Z,11.70
2023-01-02T14:21:47.532Z,11.70
2023-01-02T14:24:30.229Z,11.70
2023-01-02T14:27:03.557Z,11.70
2023-01-02T14:29:33.945Z,11.70
2023-01-02T14:32:07.726Z,11.70
2023-01-02T14:34:43.482Z,11.70
2023-01-02T14:37:12.226Z,11.60
2023-01-02T14:39:40.866Z,11.60
2023-01-02T14:42:50.370Z,11.60
2023-01-02T14:45:23.801Z,11.50
2023-01-02T14:47:59.251Z,11.50
2023-01-02T14:50:45.218Z,11.50
2023-01-02T14:53:19.112Z,11.50
2023-01-02T14:55:49.023Z,11.50
2023-01-02T14:58:25.078Z,11.50
2023-01-02T15:01:02.404Z,11.50
2023-01-02T15:03:43.369Z,11.50
2023-01-02T15:06:19.715Z,11.50
2023-01-02T15:08:51.380Z,11.50
2023-01-02T15:11:38.656Z,11.40
2023-01-02T15:18:57.191Z,11.50
2023-01-02T15:21:29.367Z,11.50
2023-01-02T15:24:00.325Z,11.50
2023-01-02T15:26:34.376Z,11.40
2023-01-02T15:29:04.943Z,11.40
2023-01-02T15:31:33.524Z,11.30
2023-01-02T15:34:03.298Z,11.30
2023-01-02T15:36:38.861Z,11.30
2023-01-02T15:39:14.897Z,11.30
2023-01-02T15:41:46.024Z,11.20
2023-01-02T15:44:32.615Z,11.10
2023-01-02T15:47:01.460Z,11.10
2023-01-02T15:49:31.202Z,11.00
2023-01-02T15:51:59.717Z,10.90
2023-01-02T15:54:29.234Z,10.80
2023-01-02T15:57:07.029Z,10.70
2023-01-02T15:59:37.097Z,10.70
2023-01-02T16:02:05.604Z,10.60
2023-01-02T16:04:35.651Z,10.60
2023-01-02T16:07:16.199Z,10.50
2023-01-02T16:09:55.140Z,10.40
2023-01-02T16:12:24.942Z,10.30
2023-01-02T16:14:56.875Z,10.30
2023-01-02T16:17:29.080Z,10.30
2023-01-02T16:20:00.580Z,10.30
2023-01-02T16:22:31.240Z,10.20
2023-01-02T16:25:05.195Z,10.20
2023-01-02T16:27:37.830Z,10.20
2023-01-02T16:30:17.290Z,10.20
2023-01-02T16:32:50.045Z,10.10
2023-01-02T16:35:23.875Z,10.10
2023-01-02T16:37:57.367Z,10.10
2023-01-02T16:40:59.794Z,10.10
2023-01-02T16:43:30.845Z,10.00
2023-01-02T16:46:00.240Z,10.00
2023-01-02T16:48:30.424Z,10.00
2023-01-02T16:51:00.645Z,10.00
2023-01-02T16:53:31.313Z,10.00
2023-01-02T16:56:19.954Z,10.00
2023-01-02T16:58:48.368Z,9.90
2023-01-02T17:01:18.003Z,9.90
2023-01-02T17:03:46.458Z,9.90
2023-01-02T17:06:19.126Z,9.90
2023-01-02T17:08:48.059Z,9.90
2023-01-02T17:11:17.857Z,9.90
2023-01-02T17:13:46.407Z,9.80
2023-01-02T17:16:14.781Z,9.80
2023-01-02T17:18:43.523Z,9.80
2023-01-02T17:21:12.618Z,9.80
2023-01-02T17:23:42.317Z,9.70
2023-01-02T17:26:10.532Z,9.70
2023-01-02T17:28:38.957Z,9.60
2023-01-02T17:31:07.292Z,9.60
2023-01-02T17:33:35.595Z,9.60
2023-01-02T17:36:03.908Z,9.50
2023-01-02T17:38:32.258Z,9.50
2023-01-02T17:41:01.929Z,9.40
2023-01-02T17:43:30.209Z,9.40
2023-01-02T17:45:58.487Z,9.30
2023-01-02T17:48:26.854Z,9.30
2023-01-02T17:50:55.280Z,9.20
2023-01-02T17:53:23.634Z,9.20
2023-01-02T17:56:20.814Z,9.10
2023-01-02T17:58:43.649Z,9.10
2023-01-02T18:01:16.563Z,9.10
2023-01-02T18:03:45.296Z,9.00
2023-01-02T18:06:14.308Z,9.00
2023-01-02T18:08:43.152Z,9.00
2023-01-02T18:11:13.774Z,9.00
2023-01-02T18:13:46.924Z,8.90
2023-01-02T18:16:17.316Z,8.90
2023-01-02T18:18:46.825Z,8.80
2023-01-02T18:21:17.660Z,8.80
2023-01-02T18:23:50.049Z,8.80
2023-01-02T18:26:20.082Z,8.80
2023-01-02T18:28:56.939Z,8.80
2023-01-02T18:31:28.455Z,8.80
2023-01-02T18:34:02.584Z,8.80
2023-01-02T18:36:31.657Z,8.80
2023-01-02T18:39:18.883Z,8.80
2023-01-02T18:41:47.344Z,8.80
2023-01-02T18:44:22.605Z,8.80
2023-01-02T18:47:01.954Z,8.80
2023-01-02T18:49:40.754Z,8.80
2023-01-02T18:52:25.128Z,8.80
2023-01-02T18:55:01.694Z,8.80
2023-01-02T18:57:34.048Z,8.80
2023-01-02T19:00:18.565Z,8.80
2023-01-02T19:02:59.841Z,8.80
2023-01-02T19:05:30.082Z,8.80
2023-01-02T19:08:11.125Z,8.80
2023-01-02T19:10:42.262Z,8.80
2023-01-02T19:13:17.174Z,8.80
2023-01-02T19:15:50.754Z,8.80
2023-01-02T19:18:40.752Z,8.70
2023-01-02T19:21:19.501Z,8.70
2023-01-02T19:23:52.665Z,8.70
2023-01-02T19:26:26.087Z,8.70
2023-01-02T19:29:00.520Z,8.60
2023-01-02T19:31:43.183Z,8.60
2023-01-02T19:34:28.141Z,8.60
2023-01-02T19:37:10.139Z,8.50
2023-01-02T19:39:42.400Z,8.50
2023-01-02T19:42:20.341Z,8.40
2023-01-02T19:44:49.825Z,8.40
2023-01-02T19:47:20.796Z,8.30
2023-01-02T19:49:49.541Z,8.30
2023-01-02T19:52:17.910Z,8.30
2023-01-02T19:54:46.938Z,8.20
2023-01-02T19:57:17.681Z,8.10
2023-01-02T19:59:46.513Z,8.10
2023-01-02T20:02:15.882Z,8.10
2023-01-02T20:04:46.879Z,8.10
2023-01-02T20:07:15.787Z,8.00
2023-01-02T20:09:44.370Z,8.00
2023-01-02T20:12:30.270Z,8.00
2023-01-02T20:14:58.810Z,7.90
2023-01-02T20:17:29.181Z,7.90
2023-01-02T20:19:59.184Z,7.90
2023-01-02T20:22:28.064Z,7.90
2023-01-02T20:24:56.958Z,7.80
2023-01-02T20:27:25.354Z,7.80
2023-01-02T20:29:55.191Z,7.80
2023-01-02T20:32:24.924Z,7.80
2023-01-02T20:34:53.456Z,7.70
2023-01-02T20:37:23.386Z,7.80
2023-01-02T20:39:52.873Z,7.80
2023-01-02T20:42:21.795Z,7.80
2023-01-02T20:44:51.051Z,7.80
2023-01-02T20:47:19.500Z,7.70
2023-01-02T20:50:03.174Z,7.70
2023-01-02T20:52:32.938Z,7.70
2023-01-02T20:55:01.578Z,7.70
2023-01-02T20:57:30.613Z,7.70
2023-01-02T20:59:58.957Z,7.70
2023-01-02T21:02:27.390Z,7.70
2023-01-02T21:04:55.746Z,7.60
2023-01-02T21:07:24.130Z,7.60
2023-01-02T21:09:57.661Z,7.60
2023-01-02T21:12:43.774Z,7.50
2023-01-02T21:15:32.936Z,7.50
2023-01-02T21:18:01.367Z,7.50
2023-01-02T21:20:29.582Z,7.50
2023-01-02T21:22:57.888Z,7.40
2023-01-02T21:25:27.515Z,7.40
2023-01-02T21:27:55.947Z,7.40
2023-01-02T21:30:24.262Z,7.40
2023-01-02T21:32:52.574Z,7.40
2023-01-02T21:35:20.901Z,7.40
2023-01-02T21:37:49.177Z,7.40
2023-01-02T21:40:17.807Z,7.30
2023-01-02T21:42:47.626Z,7.30
2023-01-02T21:45:16.071Z,7.30
2023-01-02T21:47:44.340Z,7.30
2023-01-02T21:50:12.846Z,7.30
2023-01-02T21:52:41.553Z,7.30
2023-01-02T21:55:10.288Z,7.30
2023-01-02T21:58:11.702Z,7.20
2023-01-02T22:00:30.033Z,7.30
2023-01-02T22:02:58.573Z,7.20
2023-01-02T22:05:26.950Z,7.20
2023-01-02T22:07:55.402Z,7.20
2023-01-02T22:10:23.789Z,7.20
2023-01-02T22:12:52.065Z,7.20
2023-01-02T22:15:20.434Z,7.10
2023-01-02T22:17:50.098Z,7.10
2023-01-02T22:20:18.518Z,7.10
2023-01-02T22:22:46.825Z,7.10
2023-01-02T22:25:15.135Z,7.00
2023-01-02T22:27:43.692Z,7.00
2023-01-02T22:30:34.921Z,7.00
2023-01-02T22:33:05.941Z,7.00
2023-01-02T22:35:34.270Z,7.00
2023-01-02T22:38:02.486Z,7.00
2023-01-02T22:40:30.825Z,6.90
2023-01-02T22:43:02.654Z,6.90
2023-01-02T22:45:36.378Z,6.90
2023-01-02T22:48:09.392Z,6.90
2023-01-02T22:50:43.806Z,6.90
2023-01-02T22:53:19.905Z,6.90
2023-01-02T22:55:48.817Z,6.90
2023-01-02T22:58:17.195Z,6.80
2023-01-02T23:00:47.012Z,6.80
2023-01-02T23:03:17.971Z,6.80
2023-01-02T23:05:46.372Z,6.80
2023-01-02T23:08:14.934Z,6.80
2023-01-02T23:10:43.382Z,6.80
2023-01-02T23:13:11.648Z,6.80
2023-01-02T23:16:00.779Z,6.80
2023-01-02T23:18:54.537Z,6.80
2023-01-02T23:21:25.263Z,6.80
2023-01-02T23:23:53.781Z,6.80
2023-01-02T23:26:23.836Z,6.70
2023-01-02T23:29:08.614Z,6.70
2023-01-02T23:31:38.627Z,6.70
2023-01-02T23:34:09.064Z,6.70
2023-01-02T23:36:37.788Z,6.70
2023-01-02T23:39:07.766Z,6.60
2023-01-02T23:41:36.200Z,6.60
2023-01-02T23:44:04.988Z,6.60
2023-01-02T23:46:33.878Z,6.60
2023-01-02T23:49:02.851Z,6.60
2023-01-02T23:51:32.881Z,6.60
2023-01-02T23:54:02.261Z,6.60
2023-01-02T23:56:33.320Z,6.60
2023-01-02T23:59:03.633Z,6.60
